Time;durP1;ratioP1;P1;durP2;ratioP2;P2;SDS_P1;SDS_P2;PMS_P1;PMS_P2;Temp;Humidity;BMP_temperature;BMP_pressure;BME280_temperature;BME280_humidity;BME280_pressure;Samples;Min_cycle;Max_cycle;Signal;HPM_P1;HPM_P2
2024/01/05 00:01:12;;;;;;;;;;;;;;;;;;5041254;28;19936;-60
2024/01/05 00:03:39;;;;;;;;;;;;;;;;;;5043890;28;19925;-61
2024/01/05 00:06:07;;;;;;;;;;;;;;;;;;5038906;28;19925;-61
2024/01/05 00:08:34;;;;;;;;;;;;;;;;;;5042949;28;19928;-61
2024/01/05 00:11:01;;;;;;;;;;;;;;;;;;5042344;28;19925;-61
2024/01/05 00:13:27;;;;;;;;;;;;;;;;;;5043167;28;19929;-61
2024/01/05 00:15:54;;;;;;;;;;;;;;;;;;5043696;28;19925;-60
2024/01/05 00:18:21;;;;;;;;;;;;;;;;;;5041718;28;19925;-61
2024/01/05 00:20:48;;;;;;;;;;;;;;;;;;5044157;28;19925;-59
2024/01/05 00:23:15;;;;;;;;;;;;;;;;;;5040350;28;19979;-59
2024/01/05 00:25:42;;;;;;;;;;;;;;;;;;5041741;28;19929;-62
2024/01/05 00:28:09;;;;;;;;;;;;;;;;;;5043461;28;19929;-62
2024/01/05 00:30:35;;;;;;;;;;;;;;;;;;5041346;28;19925;-62
2024/01/05 00:33:02;;;;;;;;;;;;;;;;;;5042244;28;19928;-62
2024/01/05 00:35:29;;;;;;;;;;;;;;;;;;5041515;28;19933;-60
2024/01/05 00:37:56;;;;;;;;;;;;;;;;;;5040253;28;19925;-61
2024/01/05 00:40:23;;;;;;;;;;;;;;;;;;5044162;28;19933;-60
2024/01/05 00:42:50;;;;;;;;;;;;;;;;;;5041522;28;19944;-61
2024/01/05 00:45:16;;;;;;;;;;;;;;;;;;5043069;28;19925;-60
2024/01/05 00:47:43;;;;;;;;;;;;;;;;;;5042889;28;19925;-61
2024/01/05 00:50:10;;;;;;;;;;;;;;;;;;5041567;28;20353;-60
2024/01/05 00:52:37;;;;;;;;;;;;;;;;;;5043945;28;20361;-61
2024/01/05 00:55:04;;;;;;;;;;;;;;;;;;5038375;28;20430;-62
2024/01/05 00:57:31;;;;;;;;;;;;;;;;;;5044111;28;19925;-61
2024/01/05 00:59:58;;;;;;;;;;;;;;;;;;5044152;28;19948;-62
2024/01/05 01:02:25;;;;;;;;;;;;;;;;;;5047109;28;19929;-58
2024/01/05 01:04:52;;;;;;;;;;;;;;;;;;5046186;28;19978;-61
2024/01/05 01:07:19;;;;;;;;;;;;;;;;;;5045013;28;19979;-61
2024/01/05 01:09:45;;;;;;;;;;;;;;;;;;5046770;28;19925;-61
2024/01/05 01:12:12;;;;;;;;;;;;;;;;;;5043990;28;19979;-60
2024/01/05 01:14:39;;;;;;;;;;;;;;;;;;5046880;28;19928;-61
2024/01/05 01:17:06;;;;;;;;;;;;;;;;;;5042594;28;19925;-61
2024/01/05 01:19:33;;;;;;;;;;;;;;;;;;5046996;28;19929;-62
2024/01/05 01:22:00;;;;;;;;;;;;;;;;;;5043164;28;19951;-61
2024/01/05 01:24:27;;;;;;;;;;;;;;;;;;5050421;28;19955;-62
2024/01/05 01:26:53;;;;;;;;;;;;;;;;;;5042349;28;19975;-61
2024/01/05 01:29:20;;;;;;;;;;;;;;;;;;5044343;28;19979;-62
2024/01/05 01:31:47;;;;;;;;;;;;;;;;;;5046618;28;19959;-60
2024/01/05 01:34:14;;;;;;;;;;;;;;;;;;5043021;28;19925;-61
2024/01/05 01:36:41;;;;;;;;;;;;;;;;;;5044787;28;19925;-62
2024/01/05 01:39:08;;;;;;;;;;;;;;;;;;5043541;28;19979;-62
2024/01/05 01:41:34;;;;;;;;;;;;;;;;;;5045784;28;19932;-60
2024/01/05 01:44:01;;;;;;;;;;;;;;;;;;5046032;28;19925;-62
2024/01/05 01:46:29;;;;;;;;;;;;;;;;;;5044939;28;19929;-61
2024/01/05 01:48:55;;;;;;;;;;;;;;;;;;5046453;28;20303;-61
2024/01/05 01:51:22;;;;;;;;;;;;;;;;;;5042376;28;20446;-62
2024/01/05 01:53:49;;;;;;;;;;;;;;;;;;5048258;28;20391;-61
2024/01/05 01:56:16;;;;;;;;;;;;;;;;;;5045484;28;20384;-61
2024/01/05 01:58:43;;;;;;;;;;;;;;;;;;5042403;28;19925;-61
2024/01/05 02:01:10;;;;;;;;;;;;;;;;;;5045409;28;19924;-61
2024/01/05 02:03:36;;;;;;;;;;;;;;;;;;5045181;28;19929;-62
2024/01/05 02:06:03;;;;;;;;;;;;;;;;;;5039227;28;19929;-62
2024/01/05 02:08:30;;;;;;;;;;;;;;;;;;5043474;28;19925;-62
2024/01/05 02:10:57;;;;;;;;;;;;;;;;;;5042430;28;19971;-62
2024/01/05 02:13:24;;;;;;;;;;;;;;;;;;5043838;28;19982;-62
2024/01/05 02:15:51;;;;;;;;;;;;;;;;;;5044472;28;19971;-63
2024/01/05 02:18:17;;;;;;;;;;;;;;;;;;5043009;28;19925;-62
2024/01/05 02:20:46;;;;;;;;;;;;;;;;;;5045294;28;19929;-62
2024/01/05 02:23:13;;;;;;;;;;;;;;;;;;5043304;28;19963;-62
2024/01/05 02:25:40;;;;;;;;;;;;;;;;;;5049421;28;19970;-62
2024/01/05 02:28:07;;;;;;;;;;;;;;;;;;5046311;28;19971;-62
2024/01/05 02:30:34;;;;;;;;;;;;;;;;;;5047341;28;19983;-62
2024/01/05 02:33:00;;;;;;;;;;;;;;;;;;5045048;28;19983;-63
2024/01/05 02:35:27;;;;;;;;;;;;;;;;;;5052820;28;19987;-62
2024/01/05 02:37:54;;;;;;;;;;;;;;;;;;5056227;28;19987;-63
2024/01/05 02:40:21;;;;;;;;;;;;;;;;;;5048851;28;20375;-62
2024/01/05 02:42:48;;;;;;;;;;;;;;;;;;5044838;28;19925;-62
2024/01/05 02:45:20;;;;;;;;;;;;;;;;;;5045603;28;20380;-62
2024/01/05 02:47:47;;;;;;;;;;;;;;;;;;5042144;28;19924;-62
2024/01/05 02:50:14;;;;;;;;;;;;;;;;;;5041480;28;19929;-62
2024/01/05 02:52:41;;;;;;;;;;;;;;;;;;5044141;28;19976;-62
2024/01/05 02:55:07;;;;;;;;;;;;;;;;;;5044246;28;20006;-62
2024/01/05 02:57:34;;;;;;;;;;;;;;;;;;5042845;28;20349;-62
2024/01/05 03:00:03;;;;;;;;;;;;;;;;;;5045362;28;19929;-62
2024/01/05 03:02:29;;;;;;;;;;;;;;;;;;5040046;28;19969;-63
2024/01/05 03:04:56;;;;;;;;;;;;;;;;;;5045392;28;19929;-63
2024/01/05 03:07:23;;;;;;;;;;;;;;;;;;5042226;28;19929;-62
2024/01/05 03:09:50;;;;;;;;;;;;;;;;;;5042713;28;19937;-62
2024/01/05 03:12:17;;;;;;;;;;;;;;;;;;5044160;28;19928;-63
2024/01/05 03:14:44;;;;;;;;;;;;;;;;;;5042568;28;19933;-62
2024/01/05 03:17:11;;;;;;;;;;;;;;;;;;5043138;28;19941;-62
2024/01/05 03:19:37;;;;;;;;;;;;;;;;;;5043185;28;19978;-62
2024/01/05 03:22:04;;;;;;;;;;;;;;;;;;5040484;28;19975;-61
2024/01/05 03:24:31;;;;;;;;;;;;;;;;;;5044971;28;19975;-62
2024/01/05 03:26:58;;;;;;;;;;;;;;;;;;5040738;28;19991;-60
2024/01/05 03:29:25;;;;;;;;;;;;;;;;;;5044921;28;19987;-60
2024/01/05 03:31:52;;;;;;;;;;;;;;;;;;5042447;28;19932;-62
2024/01/05 03:34:19;;;;;;;;;;;;;;;;;;5042577;28;19990;-61
2024/01/05 03:36:45;;;;;;;;;;;;;;;;;;5043313;28;19992;-62
2024/01/05 03:39:12;;;;;;;;;;;;;;;;;;5041468;28;19929;-61
2024/01/05 03:41:39;;;;;;;;;;;;;;;;;;5044618;28;19987;-63
2024/01/05 03:44:06;;;;;;;;;;;;;;;;;;5040929;28;20020;-61
2024/01/05 03:46:33;;;;;;;;;;;;;;;;;;5038664;28;19932;-61
2024/01/05 03:49:00;;;;;;;;;;;;;;;;;;5041950;28;19924;-59
2024/01/05 03:51:26;;;;;;;;;;;;;;;;;;5041030;28;19929;-61
2024/01/05 03:53:53;;;;;;;;;;;;;;;;;;5043260;28;19929;-62
2024/01/05 03:56:20;;;;;;;;;;;;;;;;;;5041409;28;19971;-62
2024/01/05 03:58:47;;;;;;;;;;;;;;;;;;5044309;28;19931;-61
2024/01/05 04:01:14;;;;;;;;;;;;;;;;;;5040498;28;19971;-62
2024/01/05 04:03:41;;;;;;;;;;;;;;;;;;5044181;28;19978;-62
2024/01/05 04:06:08;;;;;;;;;;;;;;;;;;5041560;28;19971;-62
2024/01/05 04:08:35;;;;;;;;;;;;;;;;;;5040901;28;19935;-62
2024/01/05 04:11:02;;;;;;;;;;;;;;;;;;5042916;28;20294;-63
2024/01/05 04:13:29;;;;;;;;;;;;;;;;;;5042081;28;19972;-62
2024/01/05 04:15:56;;;;;;;;;;;;;;;;;;5043786;28;20411;-62
2024/01/05 04:18:23;;;;;;;;;;;;;;;;;;5039853;28;19925;-60
2024/01/05 04:20:49;;;;;;;;;;;;;;;;;;5044116;28;19925;-63
2024/01/05 04:23:16;;;;;;;;;;;;;;;;;;5040445;28;19936;-62
2024/01/05 04:25:43;;;;;;;;;;;;;;;;;;5041430;28;19978;-62
2024/01/05 04:28:10;;;;;;;;;;;;;;;;;;5042735;28;19928;-62
2024/01/05 04:30:37;;;;;;;;;;;;;;;;;;5042562;28;19928;-60
2024/01/05 04:33:04;;;;;;;;;;;;;;;;;;5044843;28;19933;-61
2024/01/05 04:35:30;;;;;;;;;;;;;;;;;;5046575;28;19956;-60
2024/01/05 04:37:57;;;;;;;;;;;;;;;;;;5049587;28;20343;-61
2024/01/05 04:40:24;;;;;;;;;;;;;;;;;;5047213;28;20364;-62
2024/01/05 04:42:51;;;;;;;;;;;;;;;;;;5046057;28;19948;-62
2024/01/05 04:45:18;;;;;;;;;;;;;;;;;;5046506;28;20524;-63
2024/01/05 04:47:46;;;;;;;;;;;;;;;;;;5046102;28;19932;-60
2024/01/05 04:50:13;;;;;;;;;;;;;;;;;;5044518;28;20268;-62
2024/01/05 04:52:39;;;;;;;;;;;;;;;;;;5047496;28;20283;-64
2024/01/05 04:55:06;;;;;;;;;;;;;;;;;;5043875;28;19964;-64
2024/01/05 04:57:33;;;;;;;;;;;;;;;;;;5047387;28;19971;-64
2024/01/05 05:00:00;;;;;;;;;;;;;;;;;;5044724;28;19994;-64
2024/01/05 05:02:27;;;;;;;;;;;;;;;;;;5046412;28;20338;-65
2024/01/05 05:04:54;;;;;;;;;;;;;;;;;;5045666;28;20346;-64
2024/01/05 05:07:21;;;;;;;;;;;;;;;;;;5044664;28;20481;-65
2024/01/05 05:09:49;;;;;;;;;;;;;;;;;;5047099;28;19951;-64
2024/01/05 05:12:15;;;;;;;;;;;;;;;;;;5043102;28;19925;-64
2024/01/05 05:14:42;;;;;;;;;;;;;;;;;;5047182;28;19964;-64
2024/01/05 05:17:08;;;;;;;;;;;;;;;;;;5043821;28;19929;-64
2024/01/05 05:19:35;;;;;;;;;;;;;;;;;;5046462;28;20298;-65
2024/01/05 05:22:02;;;;;;;;;;;;;;;;;;5045016;28;19925;-64
2024/01/05 05:24:29;;;;;;;;;;;;;;;;;;5045168;28;19935;-65
2024/01/05 05:26:56;;;;;;;;;;;;;;;;;;5046574;28;19986;-65
2024/01/05 05:29:23;;;;;;;;;;;;;;;;;;5043912;28;19926;-64
2024/01/05 05:31:50;;;;;;;;;;;;;;;;;;5046415;28;20856;-64
2024/01/05 05:34:17;;;;;;;;;;;;;;;;;;5042890;28;19979;-64
2024/01/05 05:36:44;;;;;;;;;;;;;;;;;;5045137;28;20401;-64
2024/01/05 05:39:11;;;;;;;;;;;;;;;;;;5046098;28;20011;-64
2024/01/05 05:41:38;;;;;;;;;;;;;;;;;;5045264;28;19924;-65
2024/01/05 05:44:05;;;;;;;;;;;;;;;;;;5044697;28;19925;-64
2024/01/05 05:46:32;;;;;;;;;;;;;;;;;;5044300;28;19925;-64
2024/01/05 05:48:59;;;;;;;;;;;;;;;;;;5046396;28;19925;-64
2024/01/05 05:51:26;;;;;;;;;;;;;;;;;;5046975;28;19929;-64
2024/01/05 05:53:53;;;;;;;;;;;;;;;;;;5042308;28;19925;-64
2024/01/05 05:56:19;;;;;;;;;;;;;;;;;;5045606;28;19925;-64
2024/01/05 05:58:46;;;;;;;;;;;;;;;;;;5045451;28;19929;-64
2024/01/05 06:01:13;;;;;;;;;;;;;;;;;;5045452;28;20341;-64
2024/01/05 06:03:40;;;;;;;;;;;;;;;;;;5044318;28;20023;-64
2024/01/05 06:06:07;;;;;;;;;;;;;;;;;;5042363;28;19929;-64
2024/01/05 06:08:34;;;;;;;;;;;;;;;;;;5045926;28;19925;-64
2024/01/05 06:11:01;;;;;;;;;;;;;;;;;;5045157;28;19976;-64
2024/01/05 06:13:29;;;;;;;;;;;;;;;;;;5045675;28;19925;-64
2024/01/05 06:15:56;;;;;;;;;;;;;;;;;;5044076;28;19986;-64
2024/01/05 06:18:23;;;;;;;;;;;;;;;;;;5044422;28;19929;-64
2024/01/05 06:20:50;;;;;;;;;;;;;;;;;;5045924;28;19925;-65
2024/01/05 06:23:17;;;;;;;;;;;;;;;;;;5042357;28;19929;-64
2024/01/05 06:25:43;;;;;;;;;;;;;;;;;;5046086;28;19925;-64
2024/01/05 06:28:10;;;;;;;;;;;;;;;;;;5042128;28;19925;-65
2024/01/05 06:30:37;;;;;;;;;;;;;;;;;;5042633;28;19929;-64
2024/01/05 06:33:06;;;;;;;;;;;;;;;;;;5043276;28;19928;-64
2024/01/05 06:35:33;;;;;;;;;;;;;;;;;;5044436;28;20303;-65
2024/01/05 06:38:00;;;;;;;;;;;;;;;;;;5044618;28;20015;-64
2024/01/05 06:40:27;;;;;;;;;;;;;;;;;;5043140;28;20346;-64
2024/01/05 06:42:56;;;;;;;;;;;;;;;;;;5045235;28;20264;-64
2024/01/05 06:45:23;;;;;;;;;;;;;;;;;;5042077;28;19925;-64
2024/01/05 06:47:49;;;;;;;;;;;;;;;;;;5045763;28;19970;-64
2024/01/05 06:50:16;;;;;;;;;;;;;;;;;;5041792;28;19979;-64
2024/01/05 06:52:43;;;;;;;;;;;;;;;;;;5044398;28;19931;-64
2024/01/05 06:55:10;;;;;;;;;;;;;;;;;;5044282;28;19925;-64
2024/01/05 06:57:37;;;;;;;;;;;;;;;;;;5043874;28;19925;-64
2024/01/05 07:00:04;;;;;;;;;;;;;;;;;;5044458;28;19929;-64
2024/01/05 07:02:31;;;;;;;;;;;;;;;;;;5042289;28;19929;-64
2024/01/05 07:04:58;;;;;;;;;;;;;;;;;;5044822;28;20394;-64
2024/01/05 07:07:25;;;;;;;;;;;;;;;;;;5041780;28;20343;-64
2024/01/05 07:09:52;;;;;;;;;;;;;;;;;;5043643;28;20330;-62
2024/01/05 07:12:19;;;;;;;;;;;;;;;;;;5043973;28;19929;-64
2024/01/05 07:14:46;;;;;;;;;;;;;;;;;;5043862;28;19975;-64
2024/01/05 07:17:13;;;;;;;;;;;;;;;;;;5044300;28;19971;-64
2024/01/05 07:19:40;;;;;;;;;;;;;;;;;;5042778;28;19991;-64
2024/01/05 07:22:07;;;;;;;;;;;;;;;;;;5041060;28;19931;-64
2024/01/05 07:24:36;;;;;;;;;;;;;;;;;;5047718;28;19995;-64
2024/01/05 07:27:03;;;;;;;;;;;;;;;;;;5043106;28;19925;-64
2024/01/05 07:29:30;;;;;;;;;;;;;;;;;;5047908;28;19978;-64
2024/01/05 07:31:56;;;;;;;;;;;;;;;;;;5042627;28;19929;-64
2024/01/05 07:34:23;;;;;;;;;;;;;;;;;;5042422;28;19925;-64
2024/01/05 07:36:50;;;;;;;;;;;;;;;;;;5044642;28;19929;-64
2024/01/05 07:39:17;;;;;;;;;;;;;;;;;;5042381;28;19925;-64
2024/01/05 07:41:44;;;;;;;;;;;;;;;;;;5044413;28;19925;-65
2024/01/05 07:44:11;;;;;;;;;;;;;;;;;;5041310;28;19975;-64
2024/01/05 07:46:38;;;;;;;;;;;;;;;;;;5044082;28;19926;-64
2024/01/05 07:49:05;;;;;;;;;;;;;;;;;;5042726;28;19978;-65
2024/01/05 07:51:32;;;;;;;;;;;;;;;;;;5043229;28;19928;-64
2024/01/05 07:53:59;;;;;;;;;;;;;;;;;;5043863;28;19925;-64
2024/01/05 07:56:25;;;;;;;;;;;;;;;;;;5041466;28;19933;-65
2024/01/05 07:58:52;;;;;;;;;;;;;;;;;;5044324;28;19928;-64
2024/01/05 08:01:19;;;;;;;;;;;;;;;;;;5040357;28;19925;-64
2024/01/05 08:03:46;;;;;;;;;;;;;;;;;;5044243;28;19936;-64
2024/01/05 08:06:13;;;;;;;;;;;;;;;;;;5041945;28;19924;-64
2024/01/05 08:08:40;;;;;;;;;;;;;;;;;;5045880;28;19925;-64
2024/01/05 08:11:06;;;;;;;;;;;;;;;;;;5051257;28;19982;-64
2024/01/05 08:13:33;;;;;;;;;;;;;;;;;;5045905;28;19925;-64
2024/01/05 08:16:00;;;;;;;;;;;;;;;;;;5048301;28;19929;-64
2024/01/05 08:18:27;;;;;;;;;;;;;;;;;;5044488;28;19956;-64
2024/01/05 08:20:54;;;;;;;;;;;;;;;;;;5046047;28;19929;-64
2024/01/05 08:23:21;;;;;;;;;;;;;;;;;;5047340;28;19933;-64
2024/01/05 08:25:48;;;;;;;;;;;;;;;;;;5047170;28;19925;-64
2024/01/05 08:28:15;;;;;;;;;;;;;;;;;;5047216;28;19931;-64
2024/01/05 08:30:42;;;;;;;;;;;;;;;;;;5046457;28;20023;-64
2024/01/05 08:33:09;;;;;;;;;;;;;;;;;;5047666;28;19994;-63
2024/01/05 08:35:36;;;;;;;;;;;;;;;;;;5044697;28;20280;-64
2024/01/05 08:38:03;;;;;;;;;;;;;;;;;;5045660;28;20346;-65
2024/01/05 08:40:30;;;;;;;;;;;;;;;;;;5047049;28;19925;-64
2024/01/05 08:42:57;;;;;;;;;;;;;;;;;;5045990;28;19925;-64
2024/01/05 08:45:25;;;;;;;;;;;;;;;;;;5046844;28;20864;-64
2024/01/05 08:47:52;;;;;;;;;;;;;;;;;;5046925;28;20030;-65
2024/01/05 08:50:19;;;;;;;;;;;;;;;;;;5044605;28;19926;-64
2024/01/05 08:52:46;;;;;;;;;;;;;;;;;;5048516;28;19929;-64
2024/01/05 08:55:13;;;;;;;;;;;;;;;;;;5046901;28;20052;-64
2024/01/05 08:57:40;;;;;;;;;;;;;;;;;;5047666;28;19983;-64
2024/01/05 09:00:09;;;;;;;;;;;;;;;;;;5045060;28;19982;-64
2024/01/05 09:02:36;;;;;;;;;;;;;;;;;;5046336;28;20418;-64
2024/01/05 09:05:04;;;;;;;;;;;;;;;;;;5045895;28;19951;-64
2024/01/05 09:07:31;;;;;;;;;;;;;;;;;;5045083;28;20299;-64
2024/01/05 09:09:57;;;;;;;;;;;;;;;;;;5047151;28;20350;-64
2024/01/05 09:12:24;;;;;;;;;;;;;;;;;;5046809;28;20432;-64
2024/01/05 09:14:51;;;;;;;;;;;;;;;;;;5047126;28;19926;-64
2024/01/05 09:17:18;;;;;;;;;;;;;;;;;;5043788;28;19925;-64
2024/01/05 09:19:45;;;;;;;;;;;;;;;;;;5046614;28;19924;-65
2024/01/05 09:22:12;;;;;;;;;;;;;;;;;;5045136;28;19929;-63
2024/01/05 09:24:39;;;;;;;;;;;;;;;;;;5045658;28;19925;-65
2024/01/05 09:27:06;;;;;;;;;;;;;;;;;;5050441;28;19971;-63
2024/01/05 09:29:33;;;;;;;;;;;;;;;;;;5044995;28;19932;-63
2024/01/05 09:32:00;;;;;;;;;;;;;;;;;;5048671;28;19978;-63
2024/01/05 09:34:26;;;;;;;;;;;;;;;;;;5058579;28;19971;-64
2024/01/05 09:36:53;;;;;;;;;;;;;;;;;;5058743;28;19948;-63
2024/01/05 09:39:20;;;;;;;;;;;;;;;;;;5062251;28;19951;-64
2024/01/05 09:41:47;;;;;;;;;;;;;;;;;;5059626;28;19925;-64
2024/01/05 09:44:14;;;;;;;;;;;;;;;;;;5051227;28;19950;-64
2024/01/05 09:46:41;;;;;;;;;;;;;;;;;;5044515;28;19971;-63
2024/01/05 09:49:08;;;;;;;;;;;;;;;;;;5049569;28;19979;-64
2024/01/05 09:51:35;;;;;;;;;;;;;;;;;;5042087;28;19975;-64
2024/01/05 09:54:02;;;;;;;;;;;;;;;;;;5044068;28;19940;-64
2024/01/05 09:56:29;;;;;;;;;;;;;;;;;;5052279;28;19924;-63
2024/01/05 09:58:56;;;;;;;;;;;;;;;;;;5045560;28;20338;-63
2024/01/05 10:01:23;;;;;;;;;;;;;;;;;;5045386;28;20437;-64
2024/01/05 10:03:54;;;;;;;;;;;;;;;;;;5044517;28;20387;-64
2024/01/05 10:06:21;;;;;;;;;;;;;;;;;;5043265;28;19956;-64
2024/01/05 10:08:48;;;;;;;;;;;;;;;;;;5046398;28;19925;-64
2024/01/05 10:11:15;;;;;;;;;;;;;;;;;;5042560;28;19925;-64
2024/01/05 10:13:42;;;;;;;;;;;;;;;;;;5042459;28;20338;-64
2024/01/05 10:16:08;;;;;;;;;;;;;;;;;;5045208;28;20407;-64
2024/01/05 10:18:35;;;;;;;;;;;;;;;;;;5044652;28;20284;-64
2024/01/05 10:21:02;;;;;;;;;;;;;;;;;;5045204;28;19932;-64
2024/01/05 10:23:30;;;;;;;;;;;;;;;;;;5043306;28;19972;-64
2024/01/05 10:25:57;;;;;;;;;;;;;;;;;;5046002;28;19979;-64
2024/01/05 10:28:24;;;;;;;;;;;;;;;;;;5042270;28;19932;-64
2024/01/05 10:30:52;;;;;;;;;;;;;;;;;;5046013;28;19925;-63
2024/01/05 10:33:19;;;;;;;;;;;;;;;;;;5043042;28;20516;-64
2024/01/05 10:35:46;;;;;;;;;;;;;;;;;;5046775;28;20029;-63
2024/01/05 10:38:13;;;;;;;;;;;;;;;;;;5044954;28;19979;-64
2024/01/05 10:40:40;;;;;;;;;;;;;;;;;;5044864;28;19925;-64
2024/01/05 10:43:07;;;;;;;;;;;;;;;;;;5045756;28;19924;-64
2024/01/05 10:45:34;;;;;;;;;;;;;;;;;;5044288;28;19929;-64
2024/01/05 10:48:01;;;;;;;;;;;;;;;;;;5047038;28;19928;-64
2024/01/05 10:50:28;;;;;;;;;;;;;;;;;;5043101;28;19952;-64
2024/01/05 10:52:55;;;;;;;;;;;;;;;;;;5045404;28;19924;-64
2024/01/05 10:55:21;;;;;;;;;;;;;;;;;;5046835;28;20294;-63
2024/01/05 10:57:48;;;;;;;;;;;;;;;;;;5045935;28;20387;-64
2024/01/05 11:00:15;;;;;;;;;;;;;;;;;;5049377;28;19978;-64
2024/01/05 11:02:42;;;;;;;;;;;;;;;;;;5044800;28;19999;-63
2024/01/05 11:05:09;;;;;;;;;;;;;;;;;;5047846;28;19932;-64
2024/01/05 11:07:36;;;;;;;;;;;;;;;;;;5048125;28;19925;-64
2024/01/05 11:10:03;;;;;;;;;;;;;;;;;;5045424;28;19971;-64
2024/01/05 11:12:30;;;;;;;;;;;;;;;;;;5047165;28;19925;-63
2024/01/05 11:14:57;;;;;;;;;;;;;;;;;;5047847;28;19925;-64
2024/01/05 11:17:23;;;;;;;;;;;;;;;;;;5047376;28;19924;-64
2024/01/05 11:19:49;;;;;;;;;;;;;;;;;;5045741;28;20326;-64
2024/01/05 11:22:16;;;;;;;;;;;;;;;;;;5043173;28;19975;-64
2024/01/05 11:24:43;;;;;;;;;;;;;;;;;;5047339;28;19956;-64
2024/01/05 11:27:10;;;;;;;;;;;;;;;;;;5044685;28;20437;-63
2024/01/05 11:29:37;;;;;;;;;;;;;;;;;;5046242;28;19979;-64
2024/01/05 11:32:05;;;;;;;;;;;;;;;;;;5045694;28;20011;-64
2024/01/05 11:34:32;;;;;;;;;;;;;;;;;;5045589;28;20035;-64
2024/01/05 11:36:59;;;;;;;;;;;;;;;;;;5047189;28;20387;-64
2024/01/05 11:39:26;;;;;;;;;;;;;;;;;;5047976;28;20372;-64
2024/01/05 11:41:52;;;;;;;;;;;;;;;;;;5046677;28;19975;-64
2024/01/05 11:44:19;;;;;;;;;;;;;;;;;;5043693;28;19925;-64
2024/01/05 11:46:46;;;;;;;;;;;;;;;;;;5046506;28;19929;-65
2024/01/05 11:49:13;;;;;;;;;;;;;;;;;;5044735;28;19928;-64
2024/01/05 11:51:40;;;;;;;;;;;;;;;;;;5044969;28;19929;-64
2024/01/05 11:54:09;;;;;;;;;;;;;;;;;;5045450;28;19995;-64
2024/01/05 11:56:35;;;;;;;;;;;;;;;;;;5043439;28;20015;-65
2024/01/05 11:59:02;;;;;;;;;;;;;;;;;;5045130;28;19925;-64
2024/01/05 12:01:29;;;;;;;;;;;;;;;;;;5042476;28;19933;-64
2024/01/05 12:03:56;;;;;;;;;;;;;;;;;;5046786;28;19925;-64
2024/01/05 12:06:23;;;;;;;;;;;;;;;;;;5043255;28;19925;-64
2024/01/05 12:08:50;;;;;;;;;;;;;;;;;;5044801;28;19951;-64
2024/01/05 12:11:17;;;;;;;;;;;;;;;;;;5044878;28;19974;-64
2024/01/05 12:13:44;;;;;;;;;;;;;;;;;;5044044;28;19926;-64
2024/01/05 12:16:11;;;;;;;;;;;;;;;;;;5049258;28;19925;-65
2024/01/05 12:18:38;;;;;;;;;;;;;;;;;;5044036;28;19925;-64
2024/01/05 12:21:05;;;;;;;;;;;;;;;;;;5045745;28;19971;-65
2024/01/05 12:23:32;;;;;;;;;;;;;;;;;;5049095;28;19925;-64
2024/01/05 12:25:59;;;;;;;;;;;;;;;;;;5046190;28;20334;-65
2024/01/05 12:28:26;;;;;;;;;;;;;;;;;;5046047;28;19971;-64
2024/01/05 12:30:53;;;;;;;;;;;;;;;;;;5047992;28;20432;-64
2024/01/05 12:33:20;;;;;;;;;;;;;;;;;;5053837;28;19924;-65
2024/01/05 12:35:48;;;;;;;;;;;;;;;;;;5047424;28;19925;-64
2024/01/05 12:38:15;;;;;;;;;;;;;;;;;;5043350;28;19928;-65
2024/01/05 12:40:42;;;;;;;;;;;;;;;;;;5046834;28;19921;-64
2024/01/05 12:43:09;;;;;;;;;;;;;;;;;;5046547;28;19920;-64
2024/01/05 12:45:35;;;;;;;;;;;;;;;;;;5048084;28;19961;-63
2024/01/05 12:48:02;;;;;;;;;;;;;;;;;;5046337;28;19971;-65
2024/01/05 12:50:30;;;;;;;;;;;;;;;;;;5044015;28;19929;-64
2024/01/05 12:52:57;;;;;;;;;;;;;;;;;;5046145;28;20441;-66
2024/01/05 12:55:24;;;;;;;;;;;;;;;;;;5047333;28;20437;-64
2024/01/05 12:57:51;;;;;;;;;;;;;;;;;;5046484;28;19969;-64
2024/01/05 13:00:17;;;;;;;;;;;;;;;;;;5046872;28;19924;-64
2024/01/05 13:02:44;;;;;;;;;;;;;;;;;;5048860;28;19969;-65
2024/01/05 13:05:11;;;;;;;;;;;;;;;;;;5047904;28;19996;-64
2024/01/05 13:07:38;;;;;;;;;;;;;;;;;;5047606;28;19921;-63
2024/01/05 13:10:05;;;;;;;;;;;;;;;;;;5049740;28;19920;-64
2024/01/05 13:12:32;;;;;;;;;;;;;;;;;;5047204;28;19967;-64
2024/01/05 13:14:58;;;;;;;;;;;;;;;;;;5054167;28;20039;-64
2024/01/05 13:17:25;;;;;;;;;;;;;;;;;;5050368;28;19948;-65
2024/01/05 13:19:52;;;;;;;;;;;;;;;;;;5052301;28;19921;-64
2024/01/05 13:22:19;;;;;;;;;;;;;;;;;;5051179;28;19920;-65
2024/01/05 13:24:47;;;;;;;;;;;;;;;;;;5050367;28;19925;-65
2024/01/05 13:27:14;;;;;;;;;;;;;;;;;;5053823;28;20266;-65
2024/01/05 13:29:41;;;;;;;;;;;;;;;;;;5047287;28;20377;-64
2024/01/05 13:32:08;;;;;;;;;;;;;;;;;;5050337;28;21017;-65
2024/01/05 13:34:34;;;;;;;;;;;;;;;;;;5046182;28;20391;-64
2024/01/05 13:37:01;;;;;;;;;;;;;;;;;;5047886;28;19920;-64
2024/01/05 13:39:28;;;;;;;;;;;;;;;;;;5051185;28;20351;-65
2024/01/05 13:41:55;;;;;;;;;;;;;;;;;;5047787;28;20341;-65
2024/01/05 13:44:23;;;;;;;;;;;;;;;;;;5047972;28;19925;-65
2024/01/05 13:46:50;;;;;;;;;;;;;;;;;;5047470;28;19960;-65
2024/01/05 13:49:17;;;;;;;;;;;;;;;;;;5044961;28;19921;-64
2024/01/05 13:51:44;;;;;;;;;;;;;;;;;;5050050;28;19921;-65
2024/01/05 13:54:11;;;;;;;;;;;;;;;;;;5049900;28;19925;-64
2024/01/05 13:56:38;;;;;;;;;;;;;;;;;;5048485;28;19924;-65
2024/01/05 13:59:04;;;;;;;;;;;;;;;;;;5048850;28;19925;-64
2024/01/05 14:01:31;;;;;;;;;;;;;;;;;;5048838;28;19990;-65
2024/01/05 14:03:58;;;;;;;;;;;;;;;;;;5046537;28;20345;-65
2024/01/05 14:06:25;;;;;;;;;;;;;;;;;;5044340;28;19928;-63
2024/01/05 14:08:52;;;;;;;;;;;;;;;;;;5049934;28;19920;-65
2024/01/05 14:11:19;;;;;;;;;;;;;;;;;;5046519;28;19921;-65
2024/01/05 14:13:45;;;;;;;;;;;;;;;;;;5048264;28;19921;-64
2024/01/05 14:16:12;;;;;;;;;;;;;;;;;;5047841;28;20410;-64
2024/01/05 14:18:39;;;;;;;;;;;;;;;;;;5047386;28;20365;-64
2024/01/05 14:21:06;;;;;;;;;;;;;;;;;;5046226;28;20368;-63
2024/01/05 14:23:33;;;;;;;;;;;;;;;;;;5039106;28;19921;-65
2024/01/05 14:26:00;;;;;;;;;;;;;;;;;;5045791;28;19925;-65
2024/01/05 14:28:27;;;;;;;;;;;;;;;;;;5045169;28;20383;-63
2024/01/05 14:30:54;;;;;;;;;;;;;;;;;;5041821;28;19921;-64
2024/01/05 14:33:20;;;;;;;;;;;;;;;;;;5044570;28;19920;-63
2024/01/05 14:35:47;;;;;;;;;;;;;;;;;;5043424;28;19920;-64
2024/01/05 14:38:14;;;;;;;;;;;;;;;;;;5043957;28;20372;-62
2024/01/05 14:40:41;;;;;;;;;;;;;;;;;;5043815;28;20387;-61
2024/01/05 14:43:08;;;;;;;;;;;;;;;;;;5038030;28;20441;-62
2024/01/05 14:45:35;;;;;;;;;;;;;;;;;;5036985;28;19994;-60
2024/01/05 14:48:02;;;;;;;;;;;;;;;;;;5041978;28;19966;-59
2024/01/05 14:50:29;;;;;;;;;;;;;;;;;;5035320;28;19924;-62
2024/01/05 14:52:56;;;;;;;;;;;;;;;;;;5038710;28;19974;-61
2024/01/05 14:55:23;;;;;;;;;;;;;;;;;;5037509;28;20388;-59
2024/01/05 14:57:49;;;;;;;;;;;;;;;;;;5038951;28;19975;-62
2024/01/05 15:00:19;;;;;;;;;;;;;;;;;;5042013;28;19920;-62
2024/01/05 15:02:46;;;;;;;;;;;;;;;;;;5036577;28;19928;-62
2024/01/05 15:05:13;;;;;;;;;;;;;;;;;;5039409;28;19967;-62
2024/01/05 15:07:39;;;;;;;;;;;;;;;;;;5040211;28;19920;-63
2024/01/05 15:10:07;;;;;;;;;;;;;;;;;;5044064;28;19920;-63
2024/01/05 15:12:34;;;;;;;;;;;;;;;;;;5041433;28;19925;-63
2024/01/05 15:15:01;;;;;;;;;;;;;;;;;;5043660;28;19921;-60
2024/01/05 15:17:28;;;;;;;;;;;;;;;;;;5046395;28;19920;-57
2024/01/05 15:19:54;;;;;;;;;;;;;;;;;;5046309;28;19967;-61
2024/01/05 15:22:22;;;;;;;;;;;;;;;;;;5039843;28;20006;-58
2024/01/05 15:24:49;;;;;;;;;;;;;;;;;;5040678;28;20338;-60
2024/01/05 15:27:16;;;;;;;;;;;;;;;;;;5042229;28;19925;-57
2024/01/05 15:29:43;;;;;;;;;;;;;;;;;;5043067;28;19991;-63
2024/01/05 15:32:10;;;;;;;;;;;;;;;;;;5042164;28;19928;-62
2024/01/05 15:34:36;;;;;;;;;;;;;;;;;;5043945;28;19974;-60
2024/01/05 15:37:03;;;;;;;;;;;;;;;;;;5044353;28;19994;-61
2024/01/05 15:39:30;;;;;;;;;;;;;;;;;;5040639;28;19983;-62
2024/01/05 15:41:57;;;;;;;;;;;;;;;;;;5042639;28;19921;-62
2024/01/05 15:44:23;;;;;;;;;;;;;;;;;;5041823;28;19925;-65
2024/01/05 15:46:50;;;;;;;;;;;;;;;;;;5044303;28;19975;-65
2024/01/05 15:49:17;;;;;;;;;;;;;;;;;;5043124;28;20048;-65
2024/01/05 15:51:46;;;;;;;;;;;;;;;;;;5039969;28;19960;-65
2024/01/05 15:54:12;;;;;;;;;;;;;;;;;;5039802;28;19929;-65
2024/01/05 15:56:39;;;;;;;;;;;;;;;;;;5040722;28;19967;-65
2024/01/05 15:59:06;;;;;;;;;;;;;;;;;;5045974;28;19925;-65
2024/01/05 16:01:33;;;;;;;;;;;;;;;;;;5044396;28;20511;-65
2024/01/05 16:04:00;;;;;;;;;;;;;;;;;;5040476;28;20371;-65
2024/01/05 16:06:27;;;;;;;;;;;;;;;;;;5040149;28;19921;-65
2024/01/05 16:08:54;;;;;;;;;;;;;;;;;;5041394;28;20310;-65
2024/01/05 16:11:21;;;;;;;;;;;;;;;;;;5044471;28;20356;-65
2024/01/05 16:13:50;;;;;;;;;;;;;;;;;;5041783;28;19921;-64
2024/01/05 16:16:17;;;;;;;;;;;;;;;;;;5043496;28;20353;-63
2024/01/05 16:18:44;;;;;;;;;;;;;;;;;;5040203;28;19921;-63
2024/01/05 16:21:11;;;;;;;;;;;;;;;;;;5041893;28;19921;-63
2024/01/05 16:23:38;;;;;;;;;;;;;;;;;;5043033;28;19921;-63
2024/01/05 16:26:05;;;;;;;;;;;;;;;;;;5043110;28;19920;-63
2024/01/05 16:28:32;;;;;;;;;;;;;;;;;;5042008;28;19929;-63
2024/01/05 16:30:59;;;;;;;;;;;;;;;;;;5045328;28;19920;-63
2024/01/05 16:33:27;;;;;;;;;;;;;;;;;;5043813;28;19920;-63
2024/01/05 16:35:54;;;;;;;;;;;;;;;;;;5047445;28;19928;-63
2024/01/05 16:38:21;;;;;;;;;;;;;;;;;;5044730;28;19967;-63
2024/01/05 16:40:47;;;;;;;;;;;;;;;;;;5043893;28;19921;-63
2024/01/05 16:43:16;;;;;;;;;;;;;;;;;;5045925;28;19936;-63